createdAt,value
2023-03-28T00:01:15.708Z,99538.88
2023-03-28T00:03:46.637Z,99531.41
2023-03-28T00:06:18.923Z,99534.17
2023-03-28T00:08:48.214Z,99519.67
2023-03-28T00:11:20.188Z,99507.20
2023-03-28T00:13:50.387Z,99490.96
2023-03-28T00:16:19.090Z,99486.86
2023-03-28T00:18:47.647Z,99472.06
2023-03-28T00:21:19.890Z,99467.13
2023-03-28T00:23:52.705Z,99465.58
2023-03-28T00:26:24.935Z,99456.42
2023-03-28T00:28:53.710Z,99454.92
2023-03-28T00:31:25.341Z,99449.54
2023-03-28T00:33:53.985Z,99444.20
2023-03-28T00:36:26.865Z,99440.52
2023-03-28T00:39:01.496Z,99429.73
2023-03-28T00:41:33.052Z,99425.24
2023-03-28T00:44:01.436Z,99418.85
2023-03-28T00:46:41.279Z,99414.89
2023-03-28T00:49:21.496Z,99412.92
2023-03-28T00:51:57.558Z,99413.34
2023-03-28T00:54:26.987Z,99405.48
2023-03-28T00:56:58.712Z,99404.66
2023-03-28T00:59:29.487Z,99396.89
2023-03-28T01:01:57.839Z,99392.33
2023-03-28T01:04:33.491Z,99374.23
2023-03-28T01:07:02.110Z,99369.81
2023-03-28T01:09:32.359Z,99361.71
2023-03-28T01:12:01.287Z,99350.52
2023-03-28T01:14:29.872Z,99348.23
2023-03-28T01:16:59.065Z,99341.63
2023-03-28T01:19:31.293Z,99339.91
2023-03-28T01:22:25.155Z,99329.92
2023-03-28T01:25:23.152Z,99315.52
2023-03-28T01:28:04.843Z,99300.84
2023-03-28T01:31:04.395Z,99293.02
2023-03-28T01:34:25.754Z,99283.44
2023-03-28T01:37:31.686Z,99280.02
2023-03-28T01:40:22.306Z,99268.48
2023-03-28T01:43:10.707Z,99262.24
2023-03-28T01:45:56.033Z,99254.14
2023-03-28T01:48:34.531Z,99247.63
2023-03-28T01:51:32.134Z,99241.95
2023-03-28T01:54:05.425Z,99236.26
2023-03-28T01:56:41.815Z,99227.61
2023-03-28T01:59:31.892Z,99224.52
2023-03-28T02:02:42.421Z,99214.54
2023-03-28T02:05:24.016Z,99207.73
2023-03-28T02:07:58.439Z,99207.73
2023-03-28T02:10:49.526Z,99203.17
2023-03-28T02:13:49.184Z,99196.39
2023-03-28T02:16:41.658Z,99196.38
2023-03-28T02:19:34.132Z,99191.73
2023-03-28T02:22:25.849Z,99187.08
2023-03-28T02:24:59.930Z,99185.17
2023-03-28T02:27:40.176Z,99180.86
2023-03-28T02:30:23.013Z,99171.45
2023-03-28T02:32:52.784Z,99164.64
2023-03-28T02:35:24.371Z,99161.23
2023-03-28T02:38:04.305Z,99155.20
2023-03-28T02:40:40.530Z,99151.41
2023-03-28T02:43:30.344Z,99145.35
2023-03-28T02:46:11.726Z,99141.34
2023-03-28T02:48:43.637Z,99126.11
2023-03-28T02:51:22.714Z,99111.67
2023-03-28T02:54:03.646Z,99109.88
2023-03-28T02:56:43.809Z,99105.38
2023-03-28T02:59:27.738Z,99101.21
2023-03-28T03:01:56.922Z,99097.67
2023-03-28T03:04:25.401Z,99086.67
2023-03-28T03:06:53.831Z,99079.20
2023-03-28T03:09:27.251Z,99080.67
2023-03-28T03:11:56.163Z,99075.55
2023-03-28T03:14:24.451Z,99069.75
2023-03-28T03:16:54.359Z,99064.16
2023-03-28T03:19:23.027Z,99059.14
2023-03-28T03:21:51.189Z,99055.11
2023-03-28T03:24:19.450Z,99046.79
2023-03-28T03:26:48.264Z,99039.00
2023-03-28T03:29:18.067Z,99028.50
2023-03-28T03:31:46.914Z,99026.02
2023-03-28T03:34:41.591Z,99017.66
2023-03-28T03:37:10.095Z,99021.27
2023-03-28T03:39:38.281Z,99009.89
2023-03-28T03:42:11.328Z,98998.59
2023-03-28T03:44:49.327Z,98982.78
2023-03-28T03:47:19.951Z,98985.94
2023-03-28T03:49:51.199Z,98990.06
2023-03-28T03:52:19.577Z,98992.17
2023-03-28T03:54:48.394Z,98991.05
2023-03-28T03:57:17.760Z,98990.50
2023-03-28T03:59:46.486Z,98993.95
2023-03-28T04:02:18.045Z,99002.98
2023-03-28T04:05:00.015Z,99003.19
2023-03-28T04:08:01.751Z,98993.55
2023-03-28T04:10:42.799Z,98992.17
2023-03-28T04:13:11.290Z,98987.08
2023-03-28T04:15:39.563Z,98978.41
2023-03-28T04:18:29.961Z,98976.61
2023-03-28T04:20:59.875Z,98969.77
2023-03-28T04:23:48.559Z,98969.80
2023-03-28T04:26:38.267Z,98965.98
2023-03-28T04:29:10.744Z,98962.29
2023-03-28T04:31:40.416Z,98954.02
2023-03-28T04:34:30.324Z,98948.22
2023-03-28T04:37:06.988Z,98938.54
2023-03-28T04:39:48.210Z,98938.88
2023-03-28T04:42:39.569Z,98936.48
2023-03-28T04:45:17.175Z,98928.30
2023-03-28T04:47:46.899Z,98921.95
2023-03-28T04:50:20.241Z,98918.42
2023-03-28T04:52:48.636Z,98911.86
2023-03-28T04:55:17.771Z,98909.54
2023-03-28T04:57:49.118Z,98905.26
2023-03-28T05:00:20.368Z,98902.11
2023-03-28T05:03:18.732Z,98896.45
2023-03-28T05:05:58.724Z,98887.59
2023-03-28T05:08:27.977Z,98888.70
2023-03-28T05:10:56.318Z,98881.38
2023-03-28T05:13:27.661Z,98868.77
2023-03-28T05:16:19.603Z,98869.27
2023-03-28T05:19:14.852Z,98862.88
2023-03-28T05:22:09.530Z,98860.27
2023-03-28T05:24:39.891Z,98844.10
2023-03-28T05:27:13.999Z,98841.08
2023-03-28T05:29:45.202Z,98827.58
2023-03-28T05:32:19.297Z,98826.96
2023-03-28T05:34:47.610Z,98816.96
2023-03-28T05:37:16.112Z,98812.86
2023-03-28T05:39:47.165Z,98810.45
2023-03-28T05:42:15.736Z,98808.60
2023-03-28T05:44:44.940Z,98796.89
2023-03-28T05:47:33.337Z,98790.20
2023-03-28T05:50:02.239Z,98782.67
2023-03-28T05:52:31.941Z,98779.86
2023-03-28T05:55:00.804Z,98779.08
2023-03-28T05:57:31.566Z,98772.36
2023-03-28T06:00:00.056Z,98773.77
2023-03-28T06:02:33.613Z,98773.29
2023-03-28T06:05:02.505Z,98769.23
2023-03-28T06:07:41.924Z,98767.41
2023-03-28T06:10:13.364Z,98760.79
2023-03-28T06:12:45.981Z,98753.78
2023-03-28T06:15:14.264Z,98755.63
2023-03-28T06:17:50.581Z,98748.39
2023-03-28T06:20:22.593Z,98744.06
2023-03-28T06:22:55.513Z,98751.85
2023-03-28T06:25:23.934Z,98753.52
2023-03-28T06:27:52.534Z,98747.00
2023-03-28T06:30:21.601Z,98746.40
2023-03-28T06:32:53.566Z,98740.91
2023-03-28T06:35:22.766Z,98736.13
2023-03-28T06:37:54.929Z,98729.98
2023-03-28T06:40:33.519Z,98729.46
2023-03-28T06:43:01.951Z,98723.98
2023-03-28T06:45:47.071Z,98717.87
2023-03-28T06:48:17.539Z,98715.77
2023-03-28T06:51:06.805Z,98712.45
2023-03-28T06:53:36.324Z,98709.74
2023-03-28T06:56:04.840Z,98702.02
2023-03-28T06:58:36.500Z,98698.55
2023-03-28T07:01:16.129Z,98700.33
2023-03-28T07:04:14.754Z,98705.59
2023-03-28T07:06:47.677Z,98706.66
2023-03-28T07:09:16.040Z,98710.79
2023-03-28T07:12:12.852Z,98711.90
2023-03-28T07:14:48.477Z,98710.08
2023-03-28T07:17:19.409Z,98711.36
2023-03-28T07:19:54.581Z,98711.36
2023-03-28T07:22:24.024Z,98710.45
2023-03-28T07:24:52.599Z,98710.83
2023-03-28T07:27:24.859Z,98707.03
2023-03-28T07:29:59.157Z,98708.09
2023-03-28T07:32:35.805Z,98748.80
2023-03-28T07:35:23.316Z,98769.09
2023-03-28T07:37:53.168Z,98799.06
2023-03-28T07:40:51.014Z,98816.88
2023-03-28T07:43:21.923Z,98836.48
2023-03-28T07:46:06.949Z,98838.94
2023-03-28T07:48:37.010Z,98865.32
2023-03-28T07:51:09.456Z,98865.17
2023-03-28T07:53:43.311Z,98889.44
2023-03-28T07:56:12.266Z,98897.34
2023-03-28T07:59:04.526Z,98901.46
2023-03-28T08:01:33.740Z,98919.02
2023-03-28T08:04:10.041Z,98910.45
2023-03-28T08:07:00.456Z,98930.73
2023-03-28T08:09:28.889Z,98932.54
2023-03-28T08:12:28.347Z,98944.98
2023-03-28T08:15:16.671Z,98959.34
2023-03-28T08:17:45.639Z,98968.65
2023-03-28T08:20:20.157Z,98979.62
2023-03-28T08:22:49.681Z,98991.91
2023-03-28T08:25:36.404Z,99000.33
2023-03-28T08:28:05.518Z,99014.42
2023-03-28T08:30:35.779Z,99014.10
2023-03-28T08:33:05.055Z,99035.39
2023-03-28T08:35:34.043Z,99045.99
2023-03-28T08:38:11.338Z,99046.86
2023-03-28T08:40:46.210Z,99059.27
2023-03-28T08:43:25.710Z,99076.34
2023-03-28T08:45:54.032Z,99077.55
2023-03-28T08:48:27.843Z,99089.33
2023-03-28T08:51:11.837Z,99091.44
2023-03-28T08:53:49.285Z,99094.31
2023-03-28T08:56:18.476Z,99083.09
2023-03-28T08:58:51.564Z,99097.30
2023-03-28T09:01:23.752Z,99116.27
2023-03-28T09:03:52.507Z,99130.16
2023-03-28T09:06:39.060Z,99120.67
2023-03-28T09:09:20.542Z,99105.20
2023-03-28T09:13:12.524Z,99114.56
2023-03-28T09:16:22.422Z,99120.27
2023-03-28T09:19:40.548Z,99144.30
2023-03-28T09:22:57.299Z,99134.14
2023-03-28T09:25:52.327Z,99147.05
2023-03-28T09:28:51.375Z,99174.45
2023-03-28T09:31:29.037Z,99181.35
2023-03-28T09:34:00.877Z,99188.70
2023-03-28T09:36:49.406Z,99187.73
2023-03-28T09:39:37.929Z,99186.72
2023-03-28T09:42:25.560Z,99187.82
2023-03-28T09:45:36.353Z,99192.34
2023-03-28T09:48:35.425Z,99214.75
2023-03-28T09:51:07.799Z,99218.38
2023-03-28T09:53:39.547Z,99207.95
2023-03-28T09:56:23.797Z,99222.98
2023-03-28T09:58:57.115Z,99232.61
2023-03-28T10:01:43.696Z,99246.38
2023-03-28T10:04:39.115Z,99267.39
2023-03-28T10:07:38.126Z,99284.78
2023-03-28T10:10:25.205Z,99291.45
2023-03-28T10:13:03.237Z,99281.55
2023-03-28T10:15:33.121Z,99271.94
2023-03-28T10:18:21.069Z,99302.10
2023-03-28T10:21:25.894Z,99302.80
2023-03-28T10:24:19.091Z,99324.31
2023-03-28T10:27:24.288Z,99312.94
2023-03-28T10:29:55.861Z,99314.65
2023-03-28T10:32:31.359Z,99318.80
2023-03-28T11:08:46.991Z,99367.36
2023-03-28T11:11:55.581Z,99372.71
2023-03-28T11:14:43.228Z,99383.23
2023-03-28T11:17:47.692Z,99401.77
2023-03-28T11:20:50.613Z,99422.66
2023-03-28T11:23:38.569Z,99431.80
2023-03-28T11:27:15.615Z,99428.88
2023-03-28T11:30:17.039Z,99429.98
2023-03-28T11:33:13.430Z,99440.03
2023-03-28T11:35:48.734Z,99457.22
2023-03-28T11:38:25.169Z,99477.63
2023-03-28T11:41:00.735Z,99479.81
2023-03-28T11:44:06.161Z,99503.27
2023-03-28T11:46:43.103Z,99525.80
2023-03-28T11:49:42.720Z,99536.20
2023-03-28T11:52:36.685Z,99539.80
2023-03-28T11:55:09.504Z,99552.97
2023-03-28T11:57:51.602Z,99557.07
2023-03-28T12:00:33.229Z,99571.84
2023-03-28T12:03:30.570Z,99589.84
2023-03-28T12:06:05.380Z,99580.10
2023-03-28T12:08:38.617Z,99579.70
2023-03-28T12:11:14.518Z,99586.12
2023-03-28T12:14:11.661Z,99573.88
2023-03-28T12:16:45.886Z,99562.88
2023-03-28T12:19:34.482Z,99554.35
2023-03-28T12:22:26.937Z,99557.63
2023-03-28T12:25:01.266Z,99568.29
2023-03-28T12:28:08.647Z,99579.35
2023-03-28T12:30:45.633Z,99591.42
2023-03-28T12:33:36.022Z,99616.45
2023-03-28T12:36:18.157Z,99632.87
2023-03-28T12:39:12.673Z,99631.33
2023-03-28T12:41:44.425Z,99629.46
2023-03-28T12:44:25.092Z,99622.14
2023-03-28T12:47:00.267Z,99639.92
2023-03-28T12:49:45.287Z,99636.55
2023-03-28T12:52:28.682Z,99649.48
2023-03-28T12:55:01.115Z,99656.61
2023-03-28T12:57:55.056Z,99654.21
2023-03-28T13:01:07.134Z,99673.02
2023-03-28T13:04:00.250Z,99674.66
2023-03-28T13:07:03.957Z,99682.96
2023-03-28T13:09:49.978Z,99676.30
2023-03-28T13:12:46.439Z,99683.17
2023-03-28T13:15:14.773Z,99693.50
2023-03-28T13:18:20.465Z,99689.61
2023-03-28T13:20:51.679Z,99693.45
2023-03-28T13:23:45.252Z,99694.20
2023-03-28T13:26:14.095Z,99710.05
2023-03-28T13:28:50.677Z,99728.35
2023-03-28T13:31:25.811Z,99743.27
2023-03-28T13:34:02.823Z,99762.04
2023-03-28T13:36:35.659Z,99770.35
2023-03-28T13:39:09.769Z,99786.61
2023-03-28T13:41:44.134Z,99796.70
2023-03-28T13:44:22.325Z,99794.62
2023-03-28T13:46:56.841Z,99785.73
2023-03-28T13:49:41.762Z,99793.70
2023-03-28T13:52:16.286Z,99792.73
2023-03-28T13:54:46.450Z,99797.68
2023-03-28T13:57:18.938Z,99796.27
2023-03-28T14:00:07.245Z,99792.70
2023-03-28T14:02:47.126Z,99794.16
2023-03-28T14:05:26.142Z,99792.73
2023-03-28T14:08:02.283Z,99809.76
2023-03-28T14:10:36.122Z,99808.20
2023-03-28T14:13:15.246Z,99816.94
2023-03-28T14:15:44.865Z,99828.93
2023-03-28T14:18:19.027Z,99840.09
2023-03-28T14:20:48.034Z,99841.25
2023-03-28T14:23:27.960Z,99850.10
2023-03-28T14:26:03.984Z,99848.11
2023-03-28T14:28:38.104Z,99855.98
2023-03-28T14:31:15.187Z,99861.64
2023-03-28T14:33:47.365Z,99864.61
2023-03-28T14:36:19.509Z,99866.90
2023-03-28T14:38:48.019Z,99871.98
2023-03-28T14:41:21.713Z,99877.70
2023-03-28T14:44:00.412Z,99886.42
2023-03-28T14:46:35.173Z,99902.52
2023-03-28T14:49:06.800Z,99905.81
2023-03-28T14:51:42.812Z,99919.66
2023-03-28T14:54:19.336Z,99920.90
2023-03-28T14:56:48.119Z,99927.89
2023-03-28T14:59:21.285Z,99923.67
2023-03-28T15:01:53.567Z,99933.33
2023-03-28T15:04:23.049Z,99938.89
2023-03-28T15:06:58.795Z,99950.64
2023-03-28T15:09:34.496Z,99965.98
2023-03-28T15:12:05.406Z,99974.25
2023-03-28T15:14:40.009Z,99976.02
2023-03-28T15:17:13.779Z,99990.92
2023-03-28T15:19:42.646Z,99994.44
2023-03-28T15:22:12.634Z,99984.88
2023-03-28T15:24:46.069Z,99997.92
2023-03-28T15:27:22.975Z,100017.02
2023-03-28T15:29:51.270Z,100017.95
2023-03-28T15:32:20.556Z,100021.58
2023-03-28T15:34:56.618Z,100032.05
2023-03-28T15:37:27.350Z,100037.04
2023-03-28T15:40:23.382Z,100041.00
2023-03-28T15:42:52.061Z,100051.98
2023-03-28T15:45:20.925Z,100046.90
2023-03-28T15:47:50.516Z,100065.14
2023-03-28T15:50:26.631Z,100062.96
2023-03-28T15:53:04.289Z,100066.70
2023-03-28T15:55:34.575Z,100067.85
2023-03-28T15:58:04.587Z,100080.59
2023-03-28T16:00:37.043Z,100077.41
2023-03-28T16:03:21.373Z,100092.35
2023-03-28T16:06:01.870Z,100110.23
2023-03-28T16:09:12.932Z,100119.13
2023-03-28T16:11:42.442Z,100127.34
2023-03-28T16:14:20.082Z,100131.86
2023-03-28T16:17:07.893Z,100138.55
2023-03-28T16:19:44.143Z,100150.04
2023-03-28T16:22:12.889Z,100148.79
2023-03-28T16:24:42.683Z,100159.74
2023-03-28T16:27:11.776Z,100175.17
2023-03-28T16:29:43.482Z,100181.37
2023-03-28T16:32:12.884Z,100197.27
2023-03-28T16:34:42.174Z,100202.44
2023-03-28T16:37:10.479Z,100208.77
2023-03-28T16:39:39.249Z,100218.21
2023-03-28T16:42:07.472Z,100223.86
2023-03-28T16:44:35.673Z,100226.78
2023-03-28T16:47:04.203Z,100223.01
2023-03-28T16:49:33.037Z,100234.11
2023-03-28T16:52:01.204Z,100243.02
2023-03-28T16:54:31.157Z,100255.68
2023-03-28T16:56:59.617Z,100262.54
2023-03-28T16:59:27.875Z,100264.10
2023-03-28T17:01:56.204Z,100272.35
2023-03-28T17:04:24.390Z,100276.27
2023-03-28T17:06:52.955Z,100276.59
2023-03-28T17:09:22.633Z,100281.40
2023-03-28T17:11:51.297Z,100288.10
2023-03-28T17:14:21.411Z,100283.77
2023-03-28T17:16:50.698Z,100290.52
2023-03-28T17:19:24.294Z,100288.98
2023-03-28T17:22:02.154Z,100295.14
2023-03-28T17:24:33.241Z,100302.86
2023-03-28T17:27:01.933Z,100304.56
2023-03-28T17:29:30.948Z,100318.10
2023-03-28T17:31:59.162Z,100320.16
2023-03-28T17:34:27.446Z,100336.77
2023-03-28T17:37:04.360Z,100334.03
2023-03-28T17:39:32.565Z,100334.89
2023-03-28T17:42:00.887Z,100345.48
2023-03-28T17:44:29.404Z,100343.94
2023-03-28T17:47:00.810Z,100341.53
2023-03-28T17:49:29.611Z,100343.75
2023-03-28T17:51:58.277Z,100348.71
2023-03-28T17:54:26.535Z,100357.11
2023-03-28T17:56:58.210Z,100365.16
2023-03-28T17:59:29.491Z,100364.64
2023-03-28T18:01:58.562Z,100373.03
2023-03-28T18:04:28.015Z,100364.29
2023-03-28T18:07:17.355Z,100374.56
2023-03-28T18:09:52.048Z,100376.95
2023-03-28T18:12:21.506Z,100369.94
2023-03-28T18:14:49.745Z,100395.62
2023-03-28T18:17:24.176Z,100391.35
2023-03-28T18:19:52.857Z,100390.83
2023-03-28T18:22:21.061Z,100388.61
2023-03-28T18:24:49.190Z,100391.34
2023-03-28T18:27:17.625Z,100399.91
2023-03-28T18:29:47.646Z,100407.77
2023-03-28T18:32:16.545Z,100411.68
2023-03-28T18:34:45.575Z,100419.21
2023-03-28T18:37:13.858Z,100411.00
2023-03-28T18:39:42.345Z,100414.08
2023-03-28T18:42:11.353Z,100412.88
2023-03-28T18:44:41.518Z,100415.77
2023-03-28T18:47:13.782Z,100409.80
2023-03-28T18:49:42.345Z,100416.65
2023-03-28T18:52:10.849Z,100424.14
2023-03-28T18:54:45.879Z,100425.38
2023-03-28T18:57:15.148Z,100428.65
2023-03-28T18:59:47.105Z,100434.78
2023-03-28T19:02:16.547Z,100423.48
2023-03-28T19:04:45.000Z,100427.09
2023-03-28T19:07:17.377Z,100432.74
2023-03-28T19:09:46.644Z,100433.27
2023-03-28T19:12:14.888Z,100438.77
2023-03-28T19:14:43.839Z,100441.52
2023-03-28T19:17:12.535Z,100444.24
2023-03-28T19:19:40.667Z,100455.73
2023-03-28T19:22:10.852Z,100455.40
2023-03-28T19:24:39.332Z,100456.95
2023-03-28T19:27:07.634Z,100469.45
2023-03-28T19:29:39.880Z,100469.44
2023-03-28T19:32:10.757Z,100478.55
2023-03-28T19:34:38.916Z,100478.73
2023-03-28T19:37:07.022Z,100480.42
2023-03-28T19:39:35.239Z,100489.32
2023-03-28T19:42:03.510Z,100489.52
2023-03-28T19:44:33.503Z,100486.44
2023-03-28T19:47:04.699Z,100486.27
2023-03-28T19:49:39.377Z,100490.70
2023-03-28T19:52:10.094Z,100497.52
2023-03-28T19:54:38.574Z,100500.09
2023-03-28T19:57:08.443Z,100487.77
2023-03-28T19:59:37.290Z,100498.69
2023-03-28T20:02:06.468Z,100500.23
2023-03-28T20:04:37.850Z,100504.66
2023-03-28T20:07:06.245Z,100505.20
2023-03-28T20:09:48.910Z,100507.76
2023-03-28T20:12:20.246Z,100512.33
2023-03-28T20:14:48.510Z,100515.41
2023-03-28T20:17:17.788Z,100512.88
2023-03-28T20:19:46.637Z,100517.33
2023-03-28T20:22:14.847Z,100522.05
2023-03-28T20:24:43.173Z,100530.80
2023-03-28T20:27:12.687Z,100534.56
2023-03-28T20:29:45.445Z,100534.88
2023-03-28T20:32:13.738Z,100549.45
2023-03-28T20:34:42.377Z,100554.38
2023-03-28T20:37:14.159Z,100553.33
2023-03-28T20:39:47.433Z,100552.80
2023-03-28T20:42:15.690Z,100557.90
2023-03-28T20:44:43.974Z,100562.52
2023-03-28T20:47:15.102Z,100563.17
2023-03-28T20:49:46.644Z,100565.24
2023-03-28T20:52:17.618Z,100567.53
2023-03-28T20:54:47.745Z,100581.02
2023-03-28T20:57:42.366Z,100582.89
2023-03-28T21:00:14.560Z,100576.74
2023-03-28T21:02:46.345Z,100588.50
2023-03-28T21:05:14.891Z,100582.17
2023-03-28T21:07:44.453Z,100572.75
2023-03-28T21:10:14.421Z,100577.27
2023-03-28T21:12:43.852Z,100581.19
2023-03-28T21:15:12.196Z,100575.86
2023-03-28T21:17:41.884Z,100578.34
2023-03-28T21:20:10.577Z,100583.61
2023-03-28T21:22:39.258Z,100587.60
2023-03-28T21:25:08.053Z,100586.29
2023-03-28T21:27:39.597Z,100592.80
2023-03-28T21:30:08.673Z,100600.55
2023-03-28T21:33:02.189Z,100598.63
2023-03-28T21:35:32.250Z,100600.53
2023-03-28T21:38:00.635Z,100599.05
2023-03-28T21:40:28.820Z,100601.39
2023-03-28T21:42:59.428Z,100607.98
2023-03-28T21:45:28.018Z,100599.04
2023-03-28T21:47:59.228Z,100606.13
2023-03-28T21:50:31.767Z,100611.88
2023-03-28T21:53:00.578Z,100615.55
2023-03-28T21:55:29.268Z,100612.77
2023-03-28T21:57:58.315Z,100615.59
2023-03-28T22:00:26.765Z,100616.09
2023-03-28T22:02:55.771Z,100611.41
2023-03-28T22:05:29.801Z,100613.30
2023-03-28T22:07:58.691Z,100625.16
2023-03-28T22:10:27.123Z,100626.36
2023-03-28T22:12:58.931Z,100629.16
2023-03-28T22:15:27.873Z,100629.94
2023-03-28T22:17:58.449Z,100640.80
2023-03-28T22:20:35.844Z,100643.14
2023-03-28T22:23:04.770Z,100645.30
2023-03-28T22:25:34.934Z,100649.33
2023-03-28T22:28:12.754Z,100648.80
2023-03-28T22:30:41.621Z,100653.88
2023-03-28T22:33:11.220Z,100655.78
2023-03-28T22:35:40.444Z,100656.80
2023-03-28T22:38:08.937Z,100652.68
2023-03-28T22:40:37.045Z,100650.48
2023-03-28T22:43:05.250Z,100650.06
2023-03-28T22:45:34.488Z,100645.98
2023-03-28T22:48:03.513Z,100641.80
2023-03-28T22:50:33.968Z,100640.69
2023-03-28T22:53:04.511Z,100636.01
2023-03-28T22:55:33.706Z,100631.74
2023-03-28T22:58:05.439Z,100625.36
2023-03-28T23:00:34.633Z,100625.26
2023-03-28T23:03:02.913Z,100621.69
2023-03-28T23:05:32.079Z,100624.27
2023-03-28T23:08:01.091Z,100631.92
2023-03-28T23:10:29.689Z,100635.67
2023-03-28T23:12:58.550Z,100642.73
2023-03-28T23:15:26.935Z,100642.96
2023-03-28T23:17:56.105Z,100641.38
2023-03-28T23:20:26.677Z,100637.52
2023-03-28T23:22:55.052Z,100635.83
2023-03-28T23:25:23.261Z,100635.28
2023-03-28T23:27:51.728Z,100638.11
2023-03-28T23:30:19.985Z,100634.67
2023-03-28T23:32:48.568Z,100632.77
2023-03-28T23:35:17.099Z,100634.59
2023-03-28T23:37:47.897Z,100640.85
2023-03-28T23:40:16.203Z,100638.14
2023-03-28T23:42:45.091Z,100638.69
2023-03-28T23:45:15.059Z,100637.71
2023-03-28T23:47:44.053Z,100641.10
2023-03-28T23:50:12.906Z,100641.48
2023-03-28T23:52:41.258Z,100646.30
2023-03-28T23:55:17.251Z,100654.05
2023-03-28T23:57:47.533Z,100665.00
